EDT,Max TemperatureF,Mean TemperatureF,Min TemperatureF,Max Dew PointF,MeanDew PointF,Min DewpointF,Max Humidity, Mean Humidity, Min Humidity, Max Sea Level PressureIn, Mean Sea Level PressureIn, Min Sea Level PressureIn, Max VisibilityMiles, Mean VisibilityMiles, Min VisibilityMiles, Max Wind SpeedMPH, Mean Wind SpeedMPH, Max Gust SpeedMPH,PrecipitationIn, CloudCover, Events, WindDirDegrees
2012-9-1,85,76,67,70,67,63,97,80,63,30.14,30.07,30.04,10,10,5,15,3,18,T,7,Fog-Rain-Thunderstorm,258
2012-9-2,80,74,67,70,68,66,100,84,67,30.08,30.03,29.96,10,8,0,7,2,10,T,8,Fog-Rain,129
2012-9-3,86,77,67,71,69,66,100,81,61,30.00,29.96,29.91,10,8,2,16,7,21,0.00,5,Fog,129
2012-9-4,75,71,67,73,70,66,100,92,84,29.96,29.88,29.82,10,6,1,17,6,24,1.84,7,Rain,220
2012-9-5,81,72,63,67,65,63,100,81,62,29.94,29.89,29.84,10,7,0,8,3,12,0.00,7,Fog,8
2012-9-6,85,74,63,68,65,62,100,76,51,29.93,29.89,29.86,10,9,6,15,4,20,T,4,Fog-Thunderstorm,242
2012-9-7,83,72,61,69,64,60,100,79,58,29.93,29.87,29.71,10,8,2,22,7,28,0.22,5,Fog-Rain-Thunderstorm,185
2012-9-8,68,61,53,64,58,49,100,78,56,29.85,29.69,29.55,10,8,3,21,8,26,0.35,7,Rain-Thunderstorm,268
2012-9-9,70,60,49,54,50,45,96,69,42,30.07,29.94,29.85,10,10,10,17,6,22,T,5,Fog,278
2012-9-10,70,57,44,49,46,43,93,69,44,30.22,30.17,30.08,10,10,10,14,4,20,0.00,3,,332
2012-9-11,74,58,42,54,47,42,93,67,41,30.31,30.26,30.23,10,10,10,10,4,15,0.00,3,,177
2012-9-12,79,63,46,56,50,45,93,66,39,30.33,30.28,30.25,10,10,9,12,5,16,0.00,3,Fog,163
2012-9-13,83,68,53,60,55,51,93,67,40,30.32,30.27,30.22,10,10,9,10,5,14,0.00,3,,162
2012-9-14,79,64,48,63,56,49,100,77,54,30.27,30.21,30.14,10,8,0,23,7,29,0.04,6,Fog-Rain,253
2012-9-15,69,57,45,55,48,43,100,73,45,30.31,30.26,30.20,10,7,0,14,3,20,0.00,4,Fog,280
2012-9-16,72,57,41,54,46,40,100,70,40,30.21,30.15,30.09,10,10,9,9,3,14,0.00,3,,200
2012-9-17,72,58,43,55,49,43,93,67,41,30.09,29.99,29.83,10,10,10,12,6,14,0.02,6,Fog-Rain,144
2012-9-18,65,57,48,63,58,46,100,86,72,29.91,29.67,29.58,10,6,1,21,7,28,0.49,8,Rain,237
2012-9-19,62,51,40,46,41,36,93,66,39,30.18,30.11,29.94,10,10,10,12,5,14,0.00,3,,218
2012-9-20,71,57,42,50,43,38,89,63,37,30.12,30.02,29.94,10,10,10,16,9,21,T,4,Rain,167
2012-9-21,71,61,51,54,49,42,78,58,37,29.96,29.92,29.74,10,10,10,20,8,23,0.32,8,Rain,205
2012-9-22,65,55,45,54,49,44,100,78,56,30.07,29.85,29.71,10,6,1,30,8,38,0.74,7,Fog-Rain-Thunderstorm,260
2012-9-23,58,50,41,45,42,38,96,75,54,30.21,30.15,30.06,10,8,0,18,5,28,0.00,6,Fog,251
2012-9-24,59,50,40,43,38,34,96,68,40,30.25,30.17,30.06,10,10,8,15,7,20,T,5,Rain,222
2012-9-25,65,55,44,54,45,37,93,71,48,30.09,30.04,29.97,10,9,4,17,8,25,0.05,6,Rain,182
2012-9-26,63,60,57,63,59,55,100,95,90,30.11,30.03,29.97,10,5,1,15,7,22,0.62,8,Rain-Thunderstorm,216
2012-9-27,62,56,50,61,52,48,100,86,72,30.22,30.15,30.11,10,7,2,14,7,17,0.05,8,Rain,10
2012-9-28,63,52,40,52,46,39,100,76,51,30.15,30.12,30.09,10,8,2,14,5,17,T,6,Fog-Rain,312
2012-9-29,66,54,41,48,44,40,96,72,48,30.11,30.03,29.95,10,10,9,10,4,16,0.02,6,Fog-Rain,305
2012-9-30,64,53,41,47,45,41,96,72,48,29.95,29.91,29.87,10,10,7,16,4,22,0.03,5,Fog-Rain-Thunderstorm,42